Carr, Colorado
Current Conditions -  °F | °C
As of 5:56 PM on Tuesday 27 Jan 2015 (Local Time) from KFEW Reporting Station
Clear Clear  
Wind Chill: 38°   Ceiling: Unl
Heat Index: 42°   Visibility: 10mi
Dew Point: 19°   Wind: 8mph
Humidity: 39%   Direction: 280°W
Pressure: 30.02"   Gusts: NA
Location:  40.9°N, 104.88°W
Report Text: KFEW 280056Z AUTO 28007KT 10SM CLR 06/M07 A3002 RMK AO2 SLP162 T00581071 $
Loading
Personal Weather Stations






























Interactive Weather Map New forecast layout! Learn more

10-Day Weather Forecast

Advertisements
Track Severe Weather on mobile